Stations météo

Publicité
Rostrenen, France (7119): Température de l'air & dewpoint: 03.07.2020 00:00:00 - 09.07.2020 00:00:00 (CEST)Rostrenen, France (7119): Vitesse du vent & gusts: 03.07.2020 00:00:00 - 09.07.2020 00:00:00 (CEST)Rostrenen, France (7119): Direction du vent: 03.07.2020 00:00:00 - 09.07.2020 00:00:00 (CEST)Rostrenen, France (7119): Quantités de précipitations: 03.07.2020 00:00:00 - 09.07.2020 00:00:00 (CEST)
Date & Time tt [°C] td [°C] ff [km/h] ff [knt] fx [km/h] fx [knt] dd rr [mm]
09.07.2020 00:00:00 16,0 14,7 8 4 14 8 WNW 0,0
08.07.2020 23:00:00 17,1 15,1 5 3 15 8 W 0,0
08.07.2020 22:00:00 18,7 15,4 9 5 20 11 WNW 0,0
08.07.2020 21:00:00 21,6 15,7 7 4 16 9 W 0,0
08.07.2020 20:00:00 22,3 15,6 9 5 23 12 W 0,0
08.07.2020 19:00:00 23,0 15,3 12 7 23 13 WNW 0,0
08.07.2020 18:00:00 23,5 16,3 9 5 26 14 W 0,0
08.07.2020 17:00:00 23,7 17,2 8 5 27 15 W 0,0
08.07.2020 16:00:00 22,0 16,0 12 7 25 14 WNW 0,0
08.07.2020 15:00:00 22,1 16,4 10 6 24 13 W 0,0
08.07.2020 14:00:00 21,4 16,4 11 6 22 12 W 0,0
08.07.2020 13:00:00 21,2 15,7 13 7 26 14 WSW 0,0
08.07.2020 12:00:00 19,8 15,0 10 6 21 11 NW 0,0
08.07.2020 11:00:00 17,7 13,2 10 6 19 10 WNW 0,0
08.07.2020 10:00:00 16,1 12,3 7 4 18 10 W 0,0
08.07.2020 09:00:00 13,9 11,8 6 3 18 10 W 0,0
08.07.2020 08:00:00 12,5 11,2 6 4 16 9 W 0,0
08.07.2020 07:00:00 11,5 11,2 10 6 18 10 W 0,0
08.07.2020 06:00:00 10,7 9,9 6 4 19 10 WSW 0,0
08.07.2020 05:00:00 10,8 9,4 8 5 16 9 WSW 0,0
08.07.2020 04:00:00 10,7 10,2 9 5 13 7 WSW 0,0
08.07.2020 03:00:00 11,1 10,3 4 2 8 4 WSW 0,0
08.07.2020 02:00:00 12,1 10,3 2 1 10 5 WSW 0,0
08.07.2020 01:00:00 12,8 10,5 4 2 10 5 WNW 0,0
08.07.2020 00:00:00 12,6 10,8 6 4 10 5 N 0,0
07.07.2020 23:00:00 13,8 11,3 4 2 22 12 N 0,0
07.07.2020 22:00:00 15,8 11,6 12 7 24 13 NNW 0,0
07.07.2020 21:00:00 18,6 12,3 14 8 24 13 NNW 0,0
07.07.2020 20:00:00 20,5 12,7 11 6 24 13 NW 0,0
07.07.2020 19:00:00 21,6 11,3 9 5 20 11 NW 0,0
07.07.2020 18:00:00 21,8 10,9 8 5 18 10 W 0,0
07.07.2020 17:00:00 21,7 9,2 6 3 20 11 W 0,0
07.07.2020 16:00:00 20,7 11,1 8 4 22 12 N 0,0
07.07.2020 15:00:00 19,5 10,2 8 5 19 11 WNW 0,0
07.07.2020 14:00:00 18,7 10,3 5 3 15 8 W 0,0
07.07.2020 13:00:00 17,8 9,4 8 5 21 12 W 0,0
07.07.2020 12:00:00 16,9 9,8 5 3 18 10 W 0,0
07.07.2020 11:00:00 15,4 9,1 6 4 12 6 W 0,0
07.07.2020 10:00:00 14,9 9,7 5 3 16 9 E 0,0
07.07.2020 09:00:00 13,5 10,8 5 3 12 6 N 0,2
07.07.2020 08:00:00 11,3 10,7 5 3 12 7 N 0,0
07.07.2020 07:00:00 9,5 9,4 9 5 15 8 NNW 0,0
07.07.2020 06:00:00 9,3 9,2 8 5 16 9 NNW 0,0
07.07.2020 05:00:00 8,8 8,5 6 4 13 7 NW 0,0
07.07.2020 04:00:00 9,2 8,7 5 3 16 9 WNW 0,2
07.07.2020 03:00:00 9,5 8,7 4 2 19 10 NW 0,0
07.07.2020 02:00:00 10,0 8,9 6 4 18 10 NW 0,0
07.07.2020 01:00:00 10,2 9,1 9 5 18 10 NNW 0,0
07.07.2020 00:00:00 10,2 9,1 9 5 18 10 N 0,0
06.07.2020 23:00:00 11,0 8,9 10 6 24 13 NNW 0,0
06.07.2020 22:00:00 12,6 8,9 13 7 29 15 N 0,0
06.07.2020 21:00:00 14,8 8,5 15 8 28 15 NNW 0,0
06.07.2020 20:00:00 16,3 8,8 16 9 30 16 N 0,0
06.07.2020 19:00:00 17,2 8,3 16 9 - - N 0,0
06.07.2020 18:00:00 17,6 8,7 16 8 31 17 N 0,0
06.07.2020 17:00:00 18,3 9,1 14 8 33 18 N 0,0
06.07.2020 16:00:00 18,4 8,6 13 7 32 17 NNW 0,0
06.07.2020 15:00:00 16,9 9,6 16 9 34 18 NW 0,0
06.07.2020 14:00:00 16,9 9,3 16 9 35 19 NNW 0,0
06.07.2020 13:00:00 17,1 11,1 17 9 29 16 NNW 0,0
06.07.2020 12:00:00 15,2 9,1 15 8 36 19 NNW 0,0
06.07.2020 11:00:00 14,4 9,8 15 8 34 18 NW 0,0
06.07.2020 10:00:00 14,0 9,8 18 10 37 20 NNW 0,0
06.07.2020 09:00:00 12,7 10,1 13 7 29 16 WNW 0,0
06.07.2020 08:00:00 11,2 9,5 10 5 19 10 W 0,0
06.07.2020 07:00:00 10,3 9,2 8 4 19 10 W 0,0
06.07.2020 06:00:00 10,0 8,9 8 5 22 12 W 0,0
06.07.2020 05:00:00 10,5 9,4 9 5 20 11 W 0,0
06.07.2020 04:00:00 10,2 9,3 11 6 26 14 W 0,0
06.07.2020 03:00:00 10,3 9,2 12 6 29 15 W 0,0
06.07.2020 02:00:00 10,3 9,2 13 7 24 13 WNW 0,0
06.07.2020 01:00:00 10,4 9,2 10 5 19 10 W 0,0
06.07.2020 00:00:00 11,0 8,9 10 5 21 11 W 0,0
05.07.2020 23:00:00 12,2 9,4 10 5 20 11 WNW 0,0
05.07.2020 22:00:00 13,0 8,7 10 5 30 16 WNW 0,0
05.07.2020 21:00:00 15,0 8,5 13 7 32 18 NW 0,0
05.07.2020 20:00:00 16,9 11,2 14 8 34 19 NW 0,0
05.07.2020 19:00:00 18,2 11,0 20 11 37 20 W 0,0
05.07.2020 18:00:00 18,4 11,9 18 10 40 22 W 0,0
05.07.2020 17:00:00 18,8 13,4 22 12 41 22 W 0,0
05.07.2020 16:00:00 19,8 13,9 21 11 42 23 W 0,0
05.07.2020 15:00:00 19,0 15,7 14 8 42 23 W 0,0
05.07.2020 14:00:00 18,4 16,0 19 10 40 21 WSW 0,0
05.07.2020 13:00:00 17,8 15,2 21 11 47 26 WSW 0,0
05.07.2020 12:00:00 17,3 15,8 19 10 40 22 WSW 0,2
05.07.2020 11:00:00 16,5 16,0 16 9 32 18 SW 0,0
05.07.2020 10:00:00 16,0 15,5 19 10 - - SW 0,0
05.07.2020 09:00:00 15,4 15,2 16 8 38 20 SW 0,0
05.07.2020 08:00:00 14,9 14,7 16 9 31 17 WSW 0,0
05.07.2020 07:00:00 14,7 14,5 16 9 34 18 SW 0,0
05.07.2020 06:00:00 14,6 14,4 13 7 35 19 SW 0,2
05.07.2020 05:00:00 15,0 15,0 14 8 31 17 SW 0,2
05.07.2020 04:00:00 15,0 15,0 16 8 35 19 SW 0,0
05.07.2020 03:00:00 15,0 14,8 18 10 34 18 SW 0,2
05.07.2020 02:00:00 15,1 14,9 17 9 34 18 SW 0,0
05.07.2020 01:00:00 15,3 15,1 15 8 42 23 SW 0,0
05.07.2020 00:00:00 15,5 15,3 15 8 34 18 SW 0,0
04.07.2020 23:00:00 15,7 15,5 16 8 39 21 SW 0,2
04.07.2020 22:00:00 15,9 15,6 17 9 - - SW 0,0
04.07.2020 21:00:00 16,2 15,9 16 9 36 20 SW 0,0
04.07.2020 20:00:00 16,5 15,9 14 8 36 20 SW 0,0
04.07.2020 19:00:00 17,0 16,4 18 10 37 20 WSW 0,0
04.07.2020 18:00:00 17,6 17,0 17 9 40 22 SW 0,0
04.07.2020 17:00:00 17,9 16,9 17 9 38 21 SW 0,2
04.07.2020 16:00:00 18,5 17,2 19 11 46 25 SW 0,0
04.07.2020 15:00:00 18,4 17,2 23 12 49 27 SW 0,0
04.07.2020 14:00:00 18,1 17,1 25 14 47 26 SW 0,0
04.07.2020 13:00:00 17,9 17,3 21 11 45 25 SW 0,0
04.07.2020 12:00:00 17,5 17,0 22 12 47 25 SW 0,2
04.07.2020 11:00:00 16,6 16,4 21 12 40 22 SW 0,2
04.07.2020 10:00:00 16,3 16,1 21 11 42 23 SW 0,2
04.07.2020 09:00:00 15,9 15,7 19 11 44 24 SW 0,2
04.07.2020 08:00:00 15,4 15,2 20 11 42 23 SSW 0,4
04.07.2020 07:00:00 15,1 14,9 21 11 40 22 SW 0,4
04.07.2020 06:00:00 14,7 14,5 22 12 44 24 SW 0,2
04.07.2020 05:00:00 14,5 14,2 22 12 43 23 SSW 0,0
04.07.2020 04:00:00 14,4 13,8 20 11 49 26 SW 0,0
04.07.2020 03:00:00 14,6 13,3 23 12 41 22 SW 0,0
04.07.2020 02:00:00 14,5 12,9 17 9 47 26 SW 0,0
04.07.2020 01:00:00 14,1 12,3 20 11 36 19 SW 0,0
04.07.2020 00:00:00 13,8 11,7 19 10 36 19 SW 0,0
03.07.2020 23:00:00 13,1 11,2 15 8 27 14 SW 0,0
03.07.2020 22:00:00 13,5 10,3 15 8 40 22 SW 0,0
03.07.2020 21:00:00 15,0 10,0 24 13 42 23 SW 0,0
03.07.2020 20:00:00 15,9 11,1 16 9 36 20 SW 0,0
03.07.2020 19:00:00 16,0 11,4 19 11 42 23 SW 0,0
03.07.2020 18:00:00 16,8 10,9 22 12 44 24 SW 0,0
03.07.2020 17:00:00 17,1 10,7 21 12 41 22 SW 0,0
03.07.2020 16:00:00 18,3 10,4 23 12 45 24 SW 0,0
03.07.2020 15:00:00 17,4 12,3 16 9 35 19 SW 0,0
03.07.2020 14:00:00 16,8 11,9 18 10 34 19 SW 0,0
03.07.2020 13:00:00 16,9 11,4 16 9 35 19 SSW 0,0
03.07.2020 12:00:00 16,0 10,5 15 8 33 18 WSW 0,0
03.07.2020 11:00:00 15,8 11,6 16 9 30 16 SW 0,0
03.07.2020 10:00:00 14,4 12,1 11 6 22 12 SW 0,0
03.07.2020 09:00:00 12,7 12,4 4 2 13 7 SSW 0,0
03.07.2020 08:00:00 9,7 9,7 5 3 12 7 SW 0,0
03.07.2020 07:00:00 9,4 9,4 6 3 11 6 SW 0,2
03.07.2020 06:00:00 8,7 8,6 6 3 10 5 WSW 0,0
03.07.2020 05:00:00 9,5 9,4 6 4 11 6 SW 0,0
03.07.2020 04:00:00 9,9 9,6 7 4 12 6 SW 0,0
03.07.2020 03:00:00 10,4 9,8 7 4 17 9 WSW 0,0
03.07.2020 02:00:00 11,4 10,5 10 6 21 11 W 0,0
03.07.2020 01:00:00 11,9 10,5 12 7 21 11 W 0,0
03.07.2020 00:00:00 12,9 10,4 6 3 15 8 W 0,0

tt = Température de l'air
td = dewpoint
ff = Vitesse du vent
fx = gusts
dd = Direction du vent
rr = Quantités de précipitations

stations d'obs. à proximité